sensor_id;sensor_type;location;lat;lon;timestamp;pressure;altitude;pressure_sealevel;temperature;humidity
72024;BME280;59889;50.700;5.440;2023-08-07T00:01:41;99981.21;;;23.63;30.84
72024;BME280;59889;50.700;5.440;2023-08-07T00:04:06;99980.99;;;23.67;30.81
72024;BME280;59889;50.700;5.440;2023-08-07T00:06:31;99981.60;;;23.52;30.71
72024;BME280;59889;50.700;5.440;2023-08-07T00:08:56;99983.88;;;23.72;30.74
72024;BME280;59889;50.700;5.440;2023-08-07T00:11:21;99981.81;;;23.47;30.77
72024;BME280;59889;50.700;5.440;2023-08-07T00:13:46;99977.58;;;23.66;30.79
72024;BME280;59889;50.700;5.440;2023-08-07T00:16:11;99982.69;;;23.74;30.70
72024;BME280;59889;50.700;5.440;2023-08-07T00:18:36;99980.53;;;23.46;30.72
72024;BME280;59889;50.700;5.440;2023-08-07T00:21:01;99983.14;;;23.72;30.72
72024;BME280;59889;50.700;5.440;2023-08-07T00:23:26;99983.04;;;23.75;30.67
72024;BME280;59889;50.700;5.440;2023-08-07T00:25:51;99981.34;;;23.50;30.66
72024;BME280;59889;50.700;5.440;2023-08-07T00:28:16;99980.99;;;23.71;30.70
72024;BME280;59889;50.700;5.440;2023-08-07T00:30:41;99983.17;;;23.69;30.71
72024;BME280;59889;50.700;5.440;2023-08-07T00:33:06;99983.83;;;23.61;30.81
72024;BME280;59889;50.700;5.440;2023-08-07T00:35:31;99982.24;;;23.43;30.72
72024;BME280;59889;50.700;5.440;2023-08-07T00:37:56;99983.97;;;23.60;30.80
72024;BME280;59889;50.700;5.440;2023-08-07T00:40:21;99980.77;;;23.66;30.74
72024;BME280;59889;50.700;5.440;2023-08-07T00:42:46;99982.94;;;23.67;30.69
72024;BME280;59889;50.700;5.440;2023-08-07T00:45:11;99985.98;;;23.88;30.73
72024;BME280;59889;50.700;5.440;2023-08-07T00:47:36;99988.59;;;23.62;30.73
72024;BME280;59889;50.700;5.440;2023-08-07T00:50:03;99990.15;;;23.68;30.67
72024;BME280;59889;50.700;5.440;2023-08-07T00:52:26;99988.85;;;23.72;30.62
72024;BME280;59889;50.700;5.440;2023-08-07T00:54:51;99990.08;;;23.66;30.68
72024;BME280;59889;50.700;5.440;2023-08-07T00:57:16;99987.72;;;23.45;30.62
72024;BME280;59889;50.700;5.440;2023-08-07T00:59:41;99987.14;;;23.70;30.61
72024;BME280;59889;50.700;5.440;2023-08-07T01:02:06;99989.13;;;23.65;30.68
72024;BME280;59889;50.700;5.440;2023-08-07T01:04:31;99992.08;;;23.67;30.63
72024;BME280;59889;50.700;5.440;2023-08-07T01:06:56;99991.14;;;23.63;30.66
72024;BME280;59889;50.700;5.440;2023-08-07T01:09:21;99991.77;;;23.64;30.64
72024;BME280;59889;50.700;5.440;2023-08-07T01:11:49;99995.06;;;23.43;30.62
72024;BME280;59889;50.700;5.440;2023-08-07T01:14:19;99991.79;;;23.64;30.63
72024;BME280;59889;50.700;5.440;2023-08-07T01:16:42;99995.31;;;23.62;30.65
72024;BME280;59889;50.700;5.440;2023-08-07T01:19:03;99992.22;;;23.77;30.75
72024;BME280;59889;50.700;5.440;2023-08-07T01:21:26;99992.78;;;23.60;30.64
72024;BME280;59889;50.700;5.440;2023-08-07T01:23:51;99992.55;;;23.66;30.59
72024;BME280;59889;50.700;5.440;2023-08-07T01:26:19;99996.02;;;23.54;30.71
72024;BME280;59889;50.700;5.440;2023-08-07T01:28:45;99997.38;;;23.36;30.64
72024;BME280;59889;50.700;5.440;2023-08-07T01:31:11;100001.89;;;23.61;30.61
72024;BME280;59889;50.700;5.440;2023-08-07T01:33:37;100003.54;;;23.22;30.78
72024;BME280;59889;50.700;5.440;2023-08-07T01:35:58;100005.83;;;23.70;30.49
72024;BME280;59889;50.700;5.440;2023-08-07T01:38:24;100005.96;;;23.57;30.62
72024;BME280;59889;50.700;5.440;2023-08-07T01:40:47;100003.36;;;23.33;30.63
72024;BME280;59889;50.700;5.440;2023-08-07T01:43:11;100001.15;;;23.51;30.68
72024;BME280;59889;50.700;5.440;2023-08-07T01:45:36;100002.28;;;23.52;30.64
72024;BME280;59889;50.700;5.440;2023-08-07T01:48:02;100004.34;;;23.53;30.65
72024;BME280;59889;50.700;5.440;2023-08-07T01:50:27;100003.40;;;23.62;30.53
72024;BME280;59889;50.700;5.440;2023-08-07T01:52:52;100006.90;;;23.58;30.54
72024;BME280;59889;50.700;5.440;2023-08-07T01:55:18;100010.67;;;23.50;30.63
72024;BME280;59889;50.700;5.440;2023-08-07T01:57:42;100013.08;;;23.51;30.61
72024;BME280;59889;50.700;5.440;2023-08-07T02:00:08;100012.13;;;23.41;30.72
72024;BME280;59889;50.700;5.440;2023-08-07T02:02:32;100014.12;;;23.53;30.58
72024;BME280;59889;50.700;5.440;2023-08-07T02:04:57;100010.76;;;23.43;30.67
72024;BME280;59889;50.700;5.440;2023-08-07T02:07:22;100009.38;;;23.46;30.63
72024;BME280;59889;50.700;5.440;2023-08-07T02:09:47;100014.02;;;23.50;30.60
72024;BME280;59889;50.700;5.440;2023-08-07T02:12:12;100010.55;;;23.41;30.70
72024;BME280;59889;50.700;5.440;2023-08-07T02:14:37;100014.10;;;23.49;30.59
72024;BME280;59889;50.700;5.440;2023-08-07T02:17:02;100016.92;;;23.90;30.66
72024;BME280;59889;50.700;5.440;2023-08-07T02:19:27;100018.22;;;23.51;30.56
72024;BME280;59889;50.700;5.440;2023-08-07T02:21:52;100017.02;;;23.42;30.64
72024;BME280;59889;50.700;5.440;2023-08-07T02:24:17;100016.44;;;23.41;30.64
72024;BME280;59889;50.700;5.440;2023-08-07T02:26:42;100010.84;;;23.47;30.56
72024;BME280;59889;50.700;5.440;2023-08-07T02:29:07;100013.18;;;23.54;30.49
72024;BME280;59889;50.700;5.440;2023-08-07T02:31:32;100014.60;;;23.55;30.47
72024;BME280;59889;50.700;5.440;2023-08-07T02:33:57;100011.87;;;23.44;30.57
72024;BME280;59889;50.700;5.440;2023-08-07T02:36:22;100013.59;;;23.46;30.55
72024;BME280;59889;50.700;5.440;2023-08-07T02:38:47;100019.21;;;23.46;30.54
72024;BME280;59889;50.700;5.440;2023-08-07T02:41:12;100016.42;;;23.56;30.40
72024;BME280;59889;50.700;5.440;2023-08-07T02:43:37;100015.90;;;23.51;30.46
72024;BME280;59889;50.700;5.440;2023-08-07T02:46:02;100020.04;;;23.51;30.45
72024;BME280;59889;50.700;5.440;2023-08-07T02:48:27;100020.60;;;23.51;30.45
72024;BME280;59889;50.700;5.440;2023-08-07T02:50:52;100021.37;;;23.44;30.52
72024;BME280;59889;50.700;5.440;2023-08-07T02:53:17;100021.62;;;23.47;30.48
72024;BME280;59889;50.700;5.440;2023-08-07T02:55:43;100021.72;;;23.46;30.50
72024;BME280;59889;50.700;5.440;2023-08-07T02:58:07;100022.13;;;23.47;30.48
72024;BME280;59889;50.700;5.440;2023-08-07T03:00:34;100020.65;;;23.49;30.44
72024;BME280;59889;50.700;5.440;2023-08-07T03:02:57;100024.18;;;23.18;30.74
72024;BME280;59889;50.700;5.440;2023-08-07T03:05:22;100026.36;;;23.47;30.43
72024;BME280;59889;50.700;5.440;2023-08-07T03:07:47;100024.60;;;23.39;30.52
72024;BME280;59889;50.700;5.440;2023-08-07T03:10:13;100020.41;;;23.45;30.43
72024;BME280;59889;50.700;5.440;2023-08-07T03:12:37;100023.64;;;23.34;30.55
72024;BME280;59889;50.700;5.440;2023-08-07T03:15:03;100021.43;;;23.19;30.48
72024;BME280;59889;50.700;5.440;2023-08-07T03:17:27;100021.57;;;23.38;30.52
72024;BME280;59889;50.700;5.440;2023-08-07T03:19:52;100018.21;;;23.35;30.54
72024;BME280;59889;50.700;5.440;2023-08-07T03:22:17;100023.56;;;23.40;30.46
72024;BME280;59889;50.700;5.440;2023-08-07T03:24:46;100020.09;;;23.34;30.51
72024;BME280;59889;50.700;5.440;2023-08-07T03:27:07;100018.17;;;23.27;30.57
72024;BME280;59889;50.700;5.440;2023-08-07T03:29:32;100013.55;;;23.40;30.43
72024;BME280;59889;50.700;5.440;2023-08-07T03:31:57;100015.51;;;23.36;30.47
72024;BME280;59889;50.700;5.440;2023-08-07T03:34:22;100013.20;;;23.64;30.43
72024;BME280;59889;50.700;5.440;2023-08-07T03:36:47;100014.14;;;23.33;30.47
72024;BME280;59889;50.700;5.440;2023-08-07T03:39:12;100013.57;;;23.36;30.44
72024;BME280;59889;50.700;5.440;2023-08-07T03:41:38;100021.07;;;23.37;30.43
72024;BME280;59889;50.700;5.440;2023-08-07T03:44:03;100017.06;;;23.37;30.41
72024;BME280;59889;50.700;5.440;2023-08-07T03:46:27;100023.69;;;23.21;30.57
72024;BME280;59889;50.700;5.440;2023-08-07T03:48:52;100025.52;;;23.39;30.37
72024;BME280;59889;50.700;5.440;2023-08-07T03:51:17;100026.38;;;23.61;30.37
72024;BME280;59889;50.700;5.440;2023-08-07T03:53:43;100026.09;;;23.33;30.40
72024;BME280;59889;50.700;5.440;2023-08-07T03:56:07;100027.03;;;23.37;30.36
72024;BME280;59889;50.700;5.440;2023-08-07T03:58:33;100025.38;;;23.25;30.47
72024;BME280;59889;50.700;5.440;2023-08-07T04:00:58;100024.40;;;23.22;30.48
72024;BME280;59889;50.700;5.440;2023-08-07T04:03:23;100021.03;;;23.25;30.46
72024;BME280;59889;50.700;5.440;2023-08-07T04:05:52;100019.20;;;23.36;30.33
72024;BME280;59889;50.700;5.440;2023-08-07T04:08:13;100019.27;;;23.24;30.43
72024;BME280;59889;50.700;5.440;2023-08-07T04:10:38;100018.30;;;23.37;30.30
72024;BME280;59889;50.700;5.440;2023-08-07T04:13:03;100015.12;;;23.32;30.34
72024;BME280;59889;50.700;5.440;2023-08-07T04:15:28;100019.16;;;23.19;30.50
72024;BME280;59889;50.700;5.440;2023-08-07T04:17:53;100022.82;;;23.30;30.34
72024;BME280;59889;50.700;5.440;2023-08-07T04:20:18;100023.52;;;23.35;30.29
72024;BME280;59889;50.700;5.440;2023-08-07T04:22:43;100024.81;;;23.32;30.30
72024;BME280;59889;50.700;5.440;2023-08-07T04:25:08;100032.74;;;23.27;30.35
72024;BME280;59889;50.700;5.440;2023-08-07T04:27:33;100034.36;;;23.09;30.29
72024;BME280;59889;50.700;5.440;2023-08-07T04:29:58;100033.50;;;23.56;30.28
72024;BME280;59889;50.700;5.440;2023-08-07T04:32:23;100034.06;;;23.26;30.35
72024;BME280;59889;50.700;5.440;2023-08-07T04:34:48;100032.22;;;23.37;30.21
72024;BME280;59889;50.700;5.440;2023-08-07T04:37:13;100031.66;;;23.27;30.30
72024;BME280;59889;50.700;5.440;2023-08-07T04:39:38;100037.70;;;23.32;30.23
72024;BME280;59889;50.700;5.440;2023-08-07T04:42:04;100042.02;;;23.17;30.40
72024;BME280;59889;50.700;5.440;2023-08-07T04:44:28;100048.17;;;23.28;30.28
72024;BME280;59889;50.700;5.440;2023-08-07T04:46:53;100047.69;;;23.26;30.30
72024;BME280;59889;50.700;5.440;2023-08-07T04:49:18;100058.60;;;23.21;30.33
72024;BME280;59889;50.700;5.440;2023-08-07T04:51:43;100049.77;;;23.75;30.26
72024;BME280;59889;50.700;5.440;2023-08-07T04:54:08;100055.34;;;23.24;30.29
72024;BME280;59889;50.700;5.440;2023-08-07T04:56:33;100051.30;;;23.46;30.32
72024;BME280;59889;50.700;5.440;2023-08-07T04:58:58;100049.72;;;23.24;30.28
72024;BME280;59889;50.700;5.440;2023-08-07T05:01:23;100054.24;;;23.42;30.35
72024;BME280;59889;50.700;5.440;2023-08-07T05:03:48;100056.34;;;23.18;30.33
72024;BME280;59889;50.700;5.440;2023-08-07T05:06:13;100056.31;;;23.24;30.26
72024;BME280;59889;50.700;5.440;2023-08-07T05:08:38;100063.75;;;23.17;30.34
72024;BME280;59889;50.700;5.440;2023-08-07T05:11:03;100065.46;;;23.48;30.25
72024;BME280;59889;50.700;5.440;2023-08-07T05:13:28;100066.73;;;23.36;30.38
72024;BME280;59889;50.700;5.440;2023-08-07T05:15:53;100067.58;;;23.51;30.24
72024;BME280;59889;50.700;5.440;2023-08-07T05:18:18;100071.98;;;23.50;30.24
72024;BME280;59889;50.700;5.440;2023-08-07T05:20:43;100070.68;;;23.27;30.22
72024;BME280;59889;50.700;5.440;2023-08-07T05:23:08;100073.22;;;23.24;30.25
72024;BME280;59889;50.700;5.440;2023-08-07T05:25:33;100074.86;;;23.28;30.19
72024;BME280;59889;50.700;5.440;2023-08-07T05:27:58;100075.86;;;23.47;30.24
72024;BME280;59889;50.700;5.440;2023-08-07T05:30:23;100077.18;;;23.22;30.25
72024;BME280;59889;50.700;5.440;2023-08-07T05:32:48;100077.27;;;23.22;30.23
72024;BME280;59889;50.700;5.440;2023-08-07T05:35:13;100077.62;;;23.12;30.35
72024;BME280;59889;50.700;5.440;2023-08-07T05:37:38;100081.09;;;23.25;30.22
72024;BME280;59889;50.700;5.440;2023-08-07T05:40:05;100078.60;;;23.25;30.19
72024;BME280;59889;50.700;5.440;2023-08-07T05:42:28;100084.00;;;23.24;30.21
72024;BME280;59889;50.700;5.440;2023-08-07T05:44:53;100084.85;;;23.52;30.18
72024;BME280;59889;50.700;5.440;2023-08-07T05:47:18;100088.10;;;23.21;30.23
72024;BME280;59889;50.700;5.440;2023-08-07T05:49:44;100092.67;;;23.26;30.17
72024;BME280;59889;50.700;5.440;2023-08-07T05:52:09;100092.76;;;23.54;30.37
72024;BME280;59889;50.700;5.440;2023-08-07T05:54:34;100095.36;;;23.18;30.24
72024;BME280;59889;50.700;5.440;2023-08-07T05:56:59;100098.72;;;23.43;30.25
72024;BME280;59889;50.700;5.440;2023-08-07T05:59:24;100096.32;;;23.53;30.13
72024;BME280;59889;50.700;5.440;2023-08-07T06:01:49;100101.16;;;23.19;30.23
72024;BME280;59889;50.700;5.440;2023-08-07T06:04:14;100101.90;;;23.19;30.23
72024;BME280;59889;50.700;5.440;2023-08-07T06:06:39;100103.39;;;23.24;30.18
72024;BME280;59889;50.700;5.440;2023-08-07T06:09:04;100106.15;;;23.26;30.12
72024;BME280;59889;50.700;5.440;2023-08-07T06:11:29;100102.86;;;23.18;30.21
72024;BME280;59889;50.700;5.440;2023-08-07T06:13:54;100106.24;;;23.42;30.20
72024;BME280;59889;50.700;5.440;2023-08-07T06:16:19;100112.31;;;23.19;30.19
72024;BME280;59889;50.700;5.440;2023-08-07T06:18:44;100106.78;;;23.11;30.30
72024;BME280;59889;50.700;5.440;2023-08-07T06:21:09;100109.83;;;23.44;30.18
72024;BME280;59889;50.700;5.440;2023-08-07T06:23:34;100111.43;;;23.17;30.21
72024;BME280;59889;50.700;5.440;2023-08-07T06:25:59;100110.99;;;23.14;30.24
72024;BME280;59889;50.700;5.440;2023-08-07T06:28:24;100116.44;;;23.04;30.35
72024;BME280;59889;50.700;5.440;2023-08-07T06:30:49;100120.37;;;23.20;30.18
72024;BME280;59889;50.700;5.440;2023-08-07T06:33:14;100125.53;;;23.20;30.17
72024;BME280;59889;50.700;5.440;2023-08-07T06:35:39;100124.35;;;23.69;30.17
72024;BME280;59889;50.700;5.440;2023-08-07T06:38:04;100117.84;;;23.49;30.11
72024;BME280;59889;50.700;5.440;2023-08-07T06:40:29;100120.94;;;23.23;30.13
72024;BME280;59889;50.700;5.440;2023-08-07T06:42:54;100123.08;;;23.24;30.12
72024;BME280;59889;50.700;5.440;2023-08-07T06:45:19;100123.37;;;23.43;30.17
72024;BME280;59889;50.700;5.440;2023-08-07T06:47:44;100127.05;;;23.25;30.11
72024;BME280;59889;50.700;5.440;2023-08-07T06:50:09;100119.49;;;23.28;30.10
72024;BME280;59889;50.700;5.440;2023-08-07T06:52:35;100129.32;;;23.22;30.14
72024;BME280;59889;50.700;5.440;2023-08-07T06:54:59;100126.49;;;23.22;30.14
72024;BME280;59889;50.700;5.440;2023-08-07T06:57:24;100126.36;;;23.34;30.01
72024;BME280;59889;50.700;5.440;2023-08-07T06:59:50;100126.90;;;23.31;30.02
72024;BME280;59889;50.700;5.440;2023-08-07T07:02:14;100124.65;;;22.95;30.18
72024;BME280;59889;50.700;5.440;2023-08-07T07:04:40;100123.04;;;23.14;30.23
72024;BME280;59889;50.700;5.440;2023-08-07T07:07:05;100127.28;;;23.32;30.03
72024;BME280;59889;50.700;5.440;2023-08-07T07:09:30;100127.02;;;23.22;30.10
72024;BME280;59889;50.700;5.440;2023-08-07T07:11:55;100125.02;;;23.37;29.95
72024;BME280;59889;50.700;5.440;2023-08-07T07:14:20;100126.30;;;23.31;30.03
72024;BME280;59889;50.700;5.440;2023-08-07T07:16:45;100125.53;;;23.15;29.94
72024;BME280;59889;50.700;5.440;2023-08-07T07:19:10;100125.68;;;23.35;29.98
72024;BME280;59889;50.700;5.440;2023-08-07T07:21:35;100125.72;;;23.35;29.98
72024;BME280;59889;50.700;5.440;2023-08-07T07:24:00;100132.14;;;23.28;30.06
72024;BME280;59889;50.700;5.440;2023-08-07T07:26:25;100132.66;;;23.26;29.82
72024;BME280;59889;50.700;5.440;2023-08-07T07:28:50;100140.84;;;23.38;29.97
72024;BME280;59889;50.700;5.440;2023-08-07T07:31:15;100142.48;;;23.50;29.84
72024;BME280;59889;50.700;5.440;2023-08-07T07:33:40;100140.14;;;23.43;29.91
72024;BME280;59889;50.700;5.440;2023-08-07T07:36:05;100143.98;;;23.54;29.82
72024;BME280;59889;50.700;5.440;2023-08-07T07:38:30;100149.37;;;23.56;29.81
72024;BME280;59889;50.700;5.440;2023-08-07T07:40:55;100147.72;;;23.62;29.76
72024;BME280;59889;50.700;5.440;2023-08-07T07:43:20;100147.44;;;23.52;29.86
72024;BME280;59889;50.700;5.440;2023-08-07T07:45:45;100149.56;;;23.45;29.94
72024;BME280;59889;50.700;5.440;2023-08-07T07:48:10;100153.50;;;23.55;29.84
72024;BME280;59889;50.700;5.440;2023-08-07T07:50:35;100149.21;;;23.50;29.89
72024;BME280;59889;50.700;5.440;2023-08-07T07:53:00;100157.91;;;23.59;29.80
72024;BME280;59889;50.700;5.440;2023-08-07T07:55:25;100159.72;;;23.49;29.89
72024;BME280;59889;50.700;5.440;2023-08-07T07:57:50;100161.96;;;23.73;29.67
72024;BME280;59889;50.700;5.440;2023-08-07T08:00:15;100165.36;;;23.44;29.98
72024;BME280;59889;50.700;5.440;2023-08-07T08:02:40;100164.98;;;23.71;29.72
72024;BME280;59889;50.700;5.440;2023-08-07T08:05:06;100163.78;;;23.58;29.86
72024;BME280;59889;50.700;5.440;2023-08-07T08:07:30;100166.45;;;23.55;29.89
72024;BME280;59889;50.700;5.440;2023-08-07T08:09:55;100174.33;;;23.61;29.85
72024;BME280;59889;50.700;5.440;2023-08-07T08:12:21;100178.77;;;23.63;29.82
72024;BME280;59889;50.700;5.440;2023-08-07T08:14:45;100183.12;;;23.69;29.75
72024;BME280;59889;50.700;5.440;2023-08-07T08:17:10;100179.42;;;23.44;30.01
72024;BME280;59889;50.700;5.440;2023-08-07T08:19:35;100180.76;;;23.59;29.85
72024;BME280;59889;50.700;5.440;2023-08-07T08:22:00;100173.78;;;23.67;29.76
72024;BME280;59889;50.700;5.440;2023-08-07T08:24:25;100176.43;;;23.52;29.93
72024;BME280;59889;50.700;5.440;2023-08-07T08:26:50;100177.59;;;23.49;29.95
72024;BME280;59889;50.700;5.440;2023-08-07T08:29:16;100179.70;;;23.53;29.92
72024;BME280;59889;50.700;5.440;2023-08-07T08:31:40;100179.68;;;23.59;29.85
72024;BME280;59889;50.700;5.440;2023-08-07T08:34:05;100179.05;;;23.49;29.93
72024;BME280;59889;50.700;5.440;2023-08-07T08:36:30;100181.88;;;23.62;29.81
72024;BME280;59889;50.700;5.440;2023-08-07T08:38:55;100183.41;;;23.57;29.88
72024;BME280;59889;50.700;5.440;2023-08-07T08:41:21;100181.97;;;23.40;30.05
72024;BME280;59889;50.700;5.440;2023-08-07T08:43:46;100183.41;;;23.67;29.78
72024;BME280;59889;50.700;5.440;2023-08-07T08:46:11;100185.99;;;23.55;29.89
72024;BME280;59889;50.700;5.440;2023-08-07T08:48:38;100187.83;;;23.55;29.88
72024;BME280;59889;50.700;5.440;2023-08-07T08:51:01;100190.51;;;23.50;29.93
72024;BME280;59889;50.700;5.440;2023-08-07T08:53:26;100189.97;;;23.56;29.87
72024;BME280;59889;50.700;5.440;2023-08-07T08:55:51;100189.40;;;23.53;29.92
72024;BME280;59889;50.700;5.440;2023-08-07T08:58:16;100186.97;;;23.53;29.89
72024;BME280;59889;50.700;5.440;2023-08-07T09:00:41;100188.15;;;23.54;29.91
72024;BME280;59889;50.700;5.440;2023-08-07T09:03:06;100189.79;;;23.50;29.95
72024;BME280;59889;50.700;5.440;2023-08-07T09:05:31;100192.35;;;23.47;30.00
72024;BME280;59889;50.700;5.440;2023-08-07T09:07:56;100199.99;;;23.89;30.03
72024;BME280;59889;50.700;5.440;2023-08-07T09:10:22;100199.10;;;23.45;29.98
72024;BME280;59889;50.700;5.440;2023-08-07T09:12:53;100201.99;;;23.47;29.95
72024;BME280;59889;50.700;5.440;2023-08-07T09:15:15;100205.52;;;23.57;29.86
72024;BME280;59889;50.700;5.440;2023-08-07T09:17:40;100211.66;;;23.50;29.92
72024;BME280;59889;50.700;5.440;2023-08-07T09:20:01;100204.37;;;23.66;30.03
72024;BME280;59889;50.700;5.440;2023-08-07T09:22:26;100206.40;;;23.53;29.92
72024;BME280;59889;50.700;5.440;2023-08-07T09:24:51;100210.21;;;23.40;30.05
72024;BME280;59889;50.700;5.440;2023-08-07T09:27:16;100206.36;;;23.53;29.91
72024;BME280;59889;50.700;5.440;2023-08-07T09:29:41;100205.31;;;23.58;29.87
72024;BME280;59889;50.700;5.440;2023-08-07T09:32:07;100207.13;;;23.52;29.92
72024;BME280;59889;50.700;5.440;2023-08-07T09:34:31;100207.57;;;23.55;29.90
72024;BME280;59889;50.700;5.440;2023-08-07T09:36:56;100205.00;;;23.70;29.73
72024;BME280;59889;50.700;5.440;2023-08-07T09:39:23;100211.02;;;23.51;29.93
72024;BME280;59889;50.700;5.440;2023-08-07T09:41:51;100206.05;;;23.72;29.72
72024;BME280;59889;50.700;5.440;2023-08-07T09:44:11;100205.67;;;23.57;29.88
72024;BME280;59889;50.700;5.440;2023-08-07T09:46:42;100205.75;;;23.31;29.89
72024;BME280;59889;50.700;5.440;2023-08-07T09:49:01;100199.34;;;23.64;29.78
72024;BME280;59889;50.700;5.440;2023-08-07T09:51:26;100208.90;;;23.59;29.81
72024;BME280;59889;50.700;5.440;2023-08-07T09:53:51;100210.32;;;23.62;29.77
72024;BME280;59889;50.700;5.440;2023-08-07T09:56:16;100209.23;;;23.58;29.82
72024;BME280;59889;50.700;5.440;2023-08-07T09:58:46;100214.95;;;23.57;29.82
72024;BME280;59889;50.700;5.440;2023-08-07T10:01:08;100216.58;;;23.64;29.75
72024;BME280;59889;50.700;5.440;2023-08-07T10:03:31;100216.34;;;23.58;29.82
72024;BME280;59889;50.700;5.440;2023-08-07T10:05:57;100218.59;;;23.62;29.76
72024;BME280;59889;50.700;5.440;2023-08-07T10:08:22;100216.64;;;23.60;29.78
72024;BME280;59889;50.700;5.440;2023-08-07T10:10:46;100220.26;;;23.62;29.75
72024;BME280;59889;50.700;5.440;2023-08-07T10:13:12;100226.43;;;23.57;29.80
72024;BME280;59889;50.700;5.440;2023-08-07T10:15:37;100226.92;;;23.60;29.77
72024;BME280;59889;50.700;5.440;2023-08-07T10:18:01;100228.82;;;23.60;29.78
72024;BME280;59889;50.700;5.440;2023-08-07T10:20:28;100232.66;;;23.58;29.80
72024;BME280;59889;50.700;5.440;2023-08-07T10:22:52;100235.44;;;23.32;29.81
72024;BME280;59889;50.700;5.440;2023-08-07T10:25:21;100243.30;;;23.50;29.85
72024;BME280;59889;50.700;5.440;2023-08-07T10:27:42;100246.44;;;23.66;29.72
72024;BME280;59889;50.700;5.440;2023-08-07T10:30:10;100243.32;;;23.63;29.74
72024;BME280;59889;50.700;5.440;2023-08-07T10:32:32;100247.76;;;23.57;29.81
72024;BME280;59889;50.700;5.440;2023-08-07T10:34:57;100251.26;;;23.38;29.76
72024;BME280;59889;50.700;5.440;2023-08-07T10:37:32;100251.56;;;23.63;29.74
72024;BME280;59889;50.700;5.440;2023-08-07T10:42:12;100244.18;;;23.66;29.69
72024;BME280;59889;50.700;5.440;2023-08-07T10:47:02;100243.22;;;23.66;29.68
72024;BME280;59889;50.700;5.440;2023-08-07T10:49:31;100240.52;;;23.44;29.91
72024;BME280;59889;50.700;5.440;2023-08-07T10:51:52;100243.76;;;23.60;29.73
72024;BME280;59889;50.700;5.440;2023-08-07T10:54:19;100244.99;;;23.41;29.91
72024;BME280;59889;50.700;5.440;2023-08-07T10:56:42;100236.80;;;23.63;29.69
72024;BME280;59889;50.700;5.440;2023-08-07T10:59:09;100238.26;;;23.51;29.80
72024;BME280;59889;50.700;5.440;2023-08-07T11:01:40;100237.51;;;23.55;29.77
72024;BME280;59889;50.700;5.440;2023-08-07T11:03:58;100242.70;;;23.65;29.66
72024;BME280;59889;50.700;5.440;2023-08-07T11:06:23;100244.88;;;23.58;29.72
72024;BME280;59889;50.700;5.440;2023-08-07T11:08:47;100240.67;;;23.72;29.55
72024;BME280;59889;50.700;5.440;2023-08-07T11:11:12;100246.57;;;23.58;29.72
72024;BME280;59889;50.700;5.440;2023-08-07T11:13:37;100244.28;;;23.27;29.78
72024;BME280;59889;50.700;5.440;2023-08-07T11:16:02;100246.05;;;23.66;29.61
72024;BME280;59889;50.700;5.440;2023-08-07T11:18:27;100247.60;;;23.61;29.65
72024;BME280;59889;50.700;5.440;2023-08-07T11:20:52;100247.08;;;23.64;29.62
72024;BME280;59889;50.700;5.440;2023-08-07T11:23:22;100247.88;;;23.57;29.70
72024;BME280;59889;50.700;5.440;2023-08-07T11:25:42;100243.60;;;23.71;29.54
72024;BME280;59889;50.700;5.440;2023-08-07T11:28:07;100243.06;;;23.65;29.58
72024;BME280;59889;50.700;5.440;2023-08-07T11:30:33;100239.40;;;23.62;29.62
72024;BME280;59889;50.700;5.440;2023-08-07T11:32:57;100236.86;;;23.61;29.64
72024;BME280;59889;50.700;5.440;2023-08-07T11:35:22;100237.94;;;23.36;29.64
72024;BME280;59889;50.700;5.440;2023-08-07T11:37:47;100236.25;;;23.43;29.81
72024;BME280;59889;50.700;5.440;2023-08-07T11:40:12;100239.06;;;23.46;29.77
72024;BME280;59889;50.700;5.440;2023-08-07T11:42:37;100239.74;;;23.60;29.60
72024;BME280;59889;50.700;5.440;2023-08-07T11:45:03;100241.98;;;23.52;29.69
72024;BME280;59889;50.700;5.440;2023-08-07T11:47:27;100239.37;;;23.57;29.63
72024;BME280;59889;50.700;5.440;2023-08-07T11:49:52;100234.84;;;23.55;29.65
72024;BME280;59889;50.700;5.440;2023-08-07T11:52:17;100238.36;;;23.52;29.68
72024;BME280;59889;50.700;5.440;2023-08-07T11:54:46;100237.98;;;23.53;29.66
72024;BME280;59889;50.700;5.440;2023-08-07T11:57:16;100234.22;;;23.58;29.60
72024;BME280;59889;50.700;5.440;2023-08-07T11:59:32;100234.92;;;23.55;29.62
72024;BME280;59889;50.700;5.440;2023-08-07T12:01:57;100238.06;;;23.49;29.66
72024;BME280;59889;50.700;5.440;2023-08-07T12:04:23;100230.98;;;23.67;29.48
72024;BME280;59889;50.700;5.440;2023-08-07T12:06:53;100229.16;;;23.57;29.59
72024;BME280;59889;50.700;5.440;2023-08-07T12:09:13;100229.97;;;23.54;29.61
72024;BME280;59889;50.700;5.440;2023-08-07T12:11:38;100232.07;;;23.61;29.53
72024;BME280;59889;50.700;5.440;2023-08-07T12:14:03;100230.60;;;23.67;29.47
72024;BME280;59889;50.700;5.440;2023-08-07T12:16:32;100235.87;;;23.57;29.54
72024;BME280;59889;50.700;5.440;2023-08-07T12:18:53;100236.68;;;23.68;29.43
72024;BME280;59889;50.700;5.440;2023-08-07T12:21:19;100234.18;;;23.62;29.49
72024;BME280;59889;50.700;5.440;2023-08-07T12:23:44;100239.08;;;23.32;29.55
72024;BME280;59889;50.700;5.440;2023-08-07T12:26:08;100234.09;;;23.71;29.40
72024;BME280;59889;50.700;5.440;2023-08-07T12:28:34;100236.89;;;23.62;29.49
72024;BME280;59889;50.700;5.440;2023-08-07T12:30:58;100243.64;;;23.58;29.53
72024;BME280;59889;50.700;5.440;2023-08-07T12:33:23;100239.70;;;23.57;29.52
72024;BME280;59889;50.700;5.440;2023-08-07T12:35:48;100244.26;;;23.56;29.53
72024;BME280;59889;50.700;5.440;2023-08-07T12:38:13;100244.91;;;23.69;29.40
72024;BME280;59889;50.700;5.440;2023-08-07T12:40:38;100243.15;;;23.56;29.53
72024;BME280;59889;50.700;5.440;2023-08-07T12:43:03;100239.85;;;23.70;29.38